sensor_id;sensor_type;location;lat;lon;timestamp;P1;durP1;ratioP1;P2;durP2;ratioP2
52186;SDS011;38161;53.020;6.598;2023-04-03T00:02:17;4.83;;;1.10;;
52186;SDS011;38161;53.020;6.598;2023-04-03T00:04:43;3.57;;;0.90;;
52186;SDS011;38161;53.020;6.598;2023-04-03T00:07:09;3.40;;;1.00;;
52186;SDS011;38161;53.020;6.598;2023-04-03T00:09:35;2.27;;;0.83;;
52186;SDS011;38161;53.020;6.598;2023-04-03T00:12:01;5.00;;;1.40;;
52186;SDS011;38161;53.020;6.598;2023-04-03T00:14:27;2.40;;;1.00;;
52186;SDS011;38161;53.020;6.598;2023-04-03T00:16:52;3.20;;;1.00;;
52186;SDS011;38161;53.020;6.598;2023-04-03T00:19:18;4.13;;;1.10;;
52186;SDS011;38161;53.020;6.598;2023-04-03T00:21:44;1.88;;;0.90;;
52186;SDS011;38161;53.020;6.598;2023-04-03T00:24:10;3.35;;;1.30;;
52186;SDS011;38161;53.020;6.598;2023-04-03T00:26:36;3.92;;;1.05;;
52186;SDS011;38161;53.020;6.598;2023-04-03T00:29:02;4.20;;;1.00;;
52186;SDS011;38161;53.020;6.598;2023-04-03T00:31:28;3.30;;;0.90;;
52186;SDS011;38161;53.020;6.598;2023-04-03T00:33:53;3.92;;;1.02;;
52186;SDS011;38161;53.020;6.598;2023-04-03T00:36:19;3.53;;;1.20;;
52186;SDS011;38161;53.020;6.598;2023-04-03T00:38:45;4.30;;;1.40;;
52186;SDS011;38161;53.020;6.598;2023-04-03T00:41:11;5.00;;;1.00;;
52186;SDS011;38161;53.020;6.598;2023-04-03T00:43:36;2.67;;;1.00;;
52186;SDS011;38161;53.020;6.598;2023-04-03T00:46:03;2.83;;;1.00;;
52186;SDS011;38161;53.020;6.598;2023-04-03T00:48:30;4.05;;;1.00;;
52186;SDS011;38161;53.020;6.598;2023-04-03T00:51:02;4.60;;;1.13;;
52186;SDS011;38161;53.020;6.598;2023-04-03T00:53:33;4.37;;;1.27;;
52186;SDS011;38161;53.020;6.598;2023-04-03T00:56:05;4.13;;;1.20;;
52186;SDS011;38161;53.020;6.598;2023-04-03T00:58:37;3.87;;;1.03;;
52186;SDS011;38161;53.020;6.598;2023-04-03T01:01:08;5.10;;;1.00;;
52186;SDS011;38161;53.020;6.598;2023-04-03T01:03:39;4.33;;;1.40;;
52186;SDS011;38161;53.020;6.598;2023-04-03T01:06:05;5.15;;;1.30;;
52186;SDS011;38161;53.020;6.598;2023-04-03T01:08:31;4.00;;;1.50;;
52186;SDS011;38161;53.020;6.598;2023-04-03T01:10:57;6.00;;;1.45;;
52186;SDS011;38161;53.020;6.598;2023-04-03T01:13:27;6.53;;;1.50;;
52186;SDS011;38161;53.020;6.598;2023-04-03T01:15:55;3.57;;;1.37;;
52186;SDS011;38161;53.020;6.598;2023-04-03T01:23:44;3.70;;;1.13;;
52186;SDS011;38161;53.020;6.598;2023-04-03T01:26:15;4.63;;;1.13;;
52186;SDS011;38161;53.020;6.598;2023-04-03T01:28:41;5.80;;;1.77;;
52186;SDS011;38161;53.020;6.598;2023-04-03T01:33:53;5.43;;;1.50;;
52186;SDS011;38161;53.020;6.598;2023-04-03T01:38:51;4.27;;;1.90;;
52186;SDS011;38161;53.020;6.598;2023-04-03T01:41:17;6.90;;;1.70;;
52186;SDS011;38161;53.020;6.598;2023-04-03T01:43:44;5.35;;;1.60;;
52186;SDS011;38161;53.020;6.598;2023-04-03T01:46:09;7.90;;;1.47;;
52186;SDS011;38161;53.020;6.598;2023-04-03T01:48:35;6.77;;;1.50;;
52186;SDS011;38161;53.020;6.598;2023-04-03T01:51:01;3.85;;;1.70;;
52186;SDS011;38161;53.020;6.598;2023-04-03T01:53:27;7.68;;;1.70;;
52186;SDS011;38161;53.020;6.598;2023-04-03T01:55:53;5.87;;;1.70;;
52186;SDS011;38161;53.020;6.598;2023-04-03T01:58:19;7.60;;;1.67;;
52186;SDS011;38161;53.020;6.598;2023-04-03T02:00:44;7.07;;;1.73;;
52186;SDS011;38161;53.020;6.598;2023-04-03T02:03:10;5.78;;;1.40;;
52186;SDS011;38161;53.020;6.598;2023-04-03T02:05:36;4.37;;;1.20;;
52186;SDS011;38161;53.020;6.598;2023-04-03T02:08:02;3.92;;;1.40;;
52186;SDS011;38161;53.020;6.598;2023-04-03T02:10:28;6.15;;;1.75;;
52186;SDS011;38161;53.020;6.598;2023-04-03T02:12:54;5.53;;;2.17;;
52186;SDS011;38161;53.020;6.598;2023-04-03T02:15:20;2.92;;;1.52;;
52186;SDS011;38161;53.020;6.598;2023-04-03T02:17:46;4.03;;;1.33;;
52186;SDS011;38161;53.020;6.598;2023-04-03T02:20:12;5.57;;;1.60;;
52186;SDS011;38161;53.020;6.598;2023-04-03T02:22:37;4.15;;;1.42;;
52186;SDS011;38161;53.020;6.598;2023-04-03T02:25:03;6.73;;;1.50;;
52186;SDS011;38161;53.020;6.598;2023-04-03T02:27:29;4.57;;;1.20;;
52186;SDS011;38161;53.020;6.598;2023-04-03T02:29:56;7.43;;;1.70;;
52186;SDS011;38161;53.020;6.598;2023-04-03T02:32:22;4.23;;;1.40;;
52186;SDS011;38161;53.020;6.598;2023-04-03T02:34:48;7.50;;;1.33;;
52186;SDS011;38161;53.020;6.598;2023-04-03T02:37:14;5.13;;;1.30;;
52186;SDS011;38161;53.020;6.598;2023-04-03T02:39:40;5.07;;;1.45;;
52186;SDS011;38161;53.020;6.598;2023-04-03T02:42:06;4.75;;;1.50;;
52186;SDS011;38161;53.020;6.598;2023-04-03T02:44:32;6.05;;;1.60;;
52186;SDS011;38161;53.020;6.598;2023-04-03T02:46:58;3.63;;;1.48;;
52186;SDS011;38161;53.020;6.598;2023-04-03T02:49:24;5.80;;;1.67;;
52186;SDS011;38161;53.020;6.598;2023-04-03T02:51:49;4.50;;;1.60;;
52186;SDS011;38161;53.020;6.598;2023-04-03T02:54:16;5.40;;;1.70;;
52186;SDS011;38161;53.020;6.598;2023-04-03T02:56:42;3.78;;;1.42;;
52186;SDS011;38161;53.020;6.598;2023-04-03T02:59:07;3.00;;;1.47;;
52186;SDS011;38161;53.020;6.598;2023-04-03T03:01:33;5.67;;;1.73;;
52186;SDS011;38161;53.020;6.598;2023-04-03T03:03:59;6.65;;;1.90;;
52186;SDS011;38161;53.020;6.598;2023-04-03T03:06:25;4.03;;;1.50;;
52186;SDS011;38161;53.020;6.598;2023-04-03T03:08:51;7.35;;;1.65;;
52186;SDS011;38161;53.020;6.598;2023-04-03T03:11:18;4.57;;;1.75;;
52186;SDS011;38161;53.020;6.598;2023-04-03T03:13:43;3.63;;;1.60;;
52186;SDS011;38161;53.020;6.598;2023-04-03T03:16:09;6.45;;;1.45;;
52186;SDS011;38161;53.020;6.598;2023-04-03T03:18:35;6.03;;;1.60;;
52186;SDS011;38161;53.020;6.598;2023-04-03T03:21:02;5.65;;;1.95;;
52186;SDS011;38161;53.020;6.598;2023-04-03T03:23:28;7.57;;;2.08;;
52186;SDS011;38161;53.020;6.598;2023-04-03T03:26:06;4.90;;;2.00;;
52186;SDS011;38161;53.020;6.598;2023-04-03T03:28:33;6.17;;;1.90;;
52186;SDS011;38161;53.020;6.598;2023-04-03T03:31:01;7.00;;;2.50;;
52186;SDS011;38161;53.020;6.598;2023-04-03T03:33:27;5.63;;;2.00;;
52186;SDS011;38161;53.020;6.598;2023-04-03T03:35:53;5.65;;;1.77;;
52186;SDS011;38161;53.020;6.598;2023-04-03T03:38:19;5.20;;;1.92;;
52186;SDS011;38161;53.020;6.598;2023-04-03T03:40:50;6.57;;;1.50;;
52186;SDS011;38161;53.020;6.598;2023-04-03T03:43:16;4.17;;;1.60;;
52186;SDS011;38161;53.020;6.598;2023-04-03T03:45:43;5.00;;;1.33;;
52186;SDS011;38161;53.020;6.598;2023-04-03T03:48:10;5.93;;;1.77;;
52186;SDS011;38161;53.020;6.598;2023-04-03T03:50:36;7.60;;;1.90;;
52186;SDS011;38161;53.020;6.598;2023-04-03T03:53:02;7.20;;;2.10;;
52186;SDS011;38161;53.020;6.598;2023-04-03T03:55:28;6.47;;;2.10;;
52186;SDS011;38161;53.020;6.598;2023-04-03T03:57:54;6.32;;;2.55;;
52186;SDS011;38161;53.020;6.598;2023-04-03T04:00:20;8.87;;;2.47;;
52186;SDS011;38161;53.020;6.598;2023-04-03T04:02:46;6.70;;;2.45;;
52186;SDS011;38161;53.020;6.598;2023-04-03T04:05:11;10.00;;;2.50;;
52186;SDS011;38161;53.020;6.598;2023-04-03T04:07:37;6.87;;;2.10;;
52186;SDS011;38161;53.020;6.598;2023-04-03T04:10:03;7.03;;;2.30;;
52186;SDS011;38161;53.020;6.598;2023-04-03T04:12:29;9.18;;;2.70;;
52186;SDS011;38161;53.020;6.598;2023-04-03T04:14:56;6.50;;;2.38;;
52186;SDS011;38161;53.020;6.598;2023-04-03T04:17:21;9.23;;;2.60;;
52186;SDS011;38161;53.020;6.598;2023-04-03T04:19:47;8.17;;;2.73;;
52186;SDS011;38161;53.020;6.598;2023-04-03T04:22:13;6.43;;;2.57;;
52186;SDS011;38161;53.020;6.598;2023-04-03T04:24:39;7.63;;;2.90;;
52186;SDS011;38161;53.020;6.598;2023-04-03T04:27:04;8.23;;;2.60;;
52186;SDS011;38161;53.020;6.598;2023-04-03T04:29:30;5.73;;;2.40;;
52186;SDS011;38161;53.020;6.598;2023-04-03T04:32:01;7.17;;;2.37;;
52186;SDS011;38161;53.020;6.598;2023-04-03T04:34:27;8.13;;;2.30;;
52186;SDS011;38161;53.020;6.598;2023-04-03T04:36:53;7.85;;;2.80;;
52186;SDS011;38161;53.020;6.598;2023-04-03T04:39:19;10.73;;;3.10;;
52186;SDS011;38161;53.020;6.598;2023-04-03T04:41:45;8.93;;;2.83;;
52186;SDS011;38161;53.020;6.598;2023-04-03T04:44:10;8.00;;;2.30;;
52186;SDS011;38161;53.020;6.598;2023-04-03T04:46:36;8.60;;;2.67;;
52186;SDS011;38161;53.020;6.598;2023-04-03T04:49:02;10.80;;;2.70;;
52186;SDS011;38161;53.020;6.598;2023-04-03T04:51:28;7.03;;;2.60;;
52186;SDS011;38161;53.020;6.598;2023-04-03T04:53:54;6.75;;;2.70;;
52186;SDS011;38161;53.020;6.598;2023-04-03T04:56:20;9.40;;;2.57;;
52186;SDS011;38161;53.020;6.598;2023-04-03T04:58:46;10.02;;;2.95;;
52186;SDS011;38161;53.020;6.598;2023-04-03T05:01:11;7.73;;;3.43;;
52186;SDS011;38161;53.020;6.598;2023-04-03T05:03:37;9.10;;;3.27;;
52186;SDS011;38161;53.020;6.598;2023-04-03T05:06:03;11.77;;;3.57;;
52186;SDS011;38161;53.020;6.598;2023-04-03T05:08:30;7.72;;;2.85;;
52186;SDS011;38161;53.020;6.598;2023-04-03T05:10:56;5.53;;;2.72;;
52186;SDS011;38161;53.020;6.598;2023-04-03T05:13:22;8.55;;;2.42;;
52186;SDS011;38161;53.020;6.598;2023-04-03T05:15:48;8.57;;;2.60;;
52186;SDS011;38161;53.020;6.598;2023-04-03T05:18:13;5.17;;;2.27;;
52186;SDS011;38161;53.020;6.598;2023-04-03T05:20:39;6.15;;;2.30;;
52186;SDS011;38161;53.020;6.598;2023-04-03T05:23:05;3.87;;;2.10;;
52186;SDS011;38161;53.020;6.598;2023-04-03T05:25:31;6.03;;;2.50;;
52186;SDS011;38161;53.020;6.598;2023-04-03T05:27:57;8.03;;;2.30;;
52186;SDS011;38161;53.020;6.598;2023-04-03T05:30:22;7.27;;;2.57;;
52186;SDS011;38161;53.020;6.598;2023-04-03T05:32:49;7.35;;;2.40;;
52186;SDS011;38161;53.020;6.598;2023-04-03T05:35:14;6.20;;;2.50;;
52186;SDS011;38161;53.020;6.598;2023-04-03T05:37:40;7.50;;;2.30;;
52186;SDS011;38161;53.020;6.598;2023-04-03T05:40:06;9.60;;;3.07;;
52186;SDS011;38161;53.020;6.598;2023-04-03T05:42:33;6.80;;;2.70;;
52186;SDS011;38161;53.020;6.598;2023-04-03T05:44:59;8.20;;;3.15;;
52186;SDS011;38161;53.020;6.598;2023-04-03T05:47:25;8.47;;;3.30;;
52186;SDS011;38161;53.020;6.598;2023-04-03T05:49:50;11.40;;;2.90;;
52186;SDS011;38161;53.020;6.598;2023-04-03T05:52:20;9.60;;;3.20;;
52186;SDS011;38161;53.020;6.598;2023-04-03T05:54:46;10.00;;;3.10;;
52186;SDS011;38161;53.020;6.598;2023-04-03T05:57:13;7.07;;;3.08;;
52186;SDS011;38161;53.020;6.598;2023-04-03T05:59:41;6.93;;;3.17;;
52186;SDS011;38161;53.020;6.598;2023-04-03T06:02:10;8.33;;;3.17;;
52186;SDS011;38161;53.020;6.598;2023-04-03T06:04:37;9.13;;;3.17;;
52186;SDS011;38161;53.020;6.598;2023-04-03T06:07:03;7.78;;;2.97;;
52186;SDS011;38161;53.020;6.598;2023-04-03T06:09:30;7.38;;;3.00;;
52186;SDS011;38161;53.020;6.598;2023-04-03T06:11:55;8.13;;;3.43;;
52186;SDS011;38161;53.020;6.598;2023-04-03T06:14:24;9.40;;;3.53;;
52186;SDS011;38161;53.020;6.598;2023-04-03T06:16:50;8.03;;;3.30;;
52186;SDS011;38161;53.020;6.598;2023-04-03T06:19:17;9.93;;;2.97;;
52186;SDS011;38161;53.020;6.598;2023-04-03T06:21:43;6.57;;;3.03;;
52186;SDS011;38161;53.020;6.598;2023-04-03T06:24:09;7.05;;;3.47;;
52186;SDS011;38161;53.020;6.598;2023-04-03T06:26:38;9.73;;;3.73;;
52186;SDS011;38161;53.020;6.598;2023-04-03T06:29:04;11.23;;;3.67;;
52186;SDS011;38161;53.020;6.598;2023-04-03T06:31:30;13.20;;;3.40;;
52186;SDS011;38161;53.020;6.598;2023-04-03T06:33:56;9.83;;;3.43;;
52186;SDS011;38161;53.020;6.598;2023-04-03T06:36:22;6.57;;;3.50;;
52186;SDS011;38161;53.020;6.598;2023-04-03T06:38:48;7.78;;;3.08;;
52186;SDS011;38161;53.020;6.598;2023-04-03T06:41:14;9.20;;;3.17;;
52186;SDS011;38161;53.020;6.598;2023-04-03T06:43:41;9.17;;;3.20;;
52186;SDS011;38161;53.020;6.598;2023-04-03T06:46:12;7.80;;;3.05;;
52186;SDS011;38161;53.020;6.598;2023-04-03T06:48:42;9.60;;;3.20;;
52186;SDS011;38161;53.020;6.598;2023-04-03T06:51:16;6.93;;;2.90;;
52186;SDS011;38161;53.020;6.598;2023-04-03T06:53:43;6.63;;;3.20;;
52186;SDS011;38161;53.020;6.598;2023-04-03T06:56:09;10.50;;;3.43;;
52186;SDS011;38161;53.020;6.598;2023-04-03T06:58:34;7.00;;;2.73;;
52186;SDS011;38161;53.020;6.598;2023-04-03T07:01:01;10.88;;;3.40;;
52186;SDS011;38161;53.020;6.598;2023-04-03T07:03:26;7.33;;;3.10;;
52186;SDS011;38161;53.020;6.598;2023-04-03T07:05:52;7.60;;;3.13;;
52186;SDS011;38161;53.020;6.598;2023-04-03T07:08:18;6.03;;;2.97;;
52186;SDS011;38161;53.020;6.598;2023-04-03T07:10:44;10.02;;;2.90;;
52186;SDS011;38161;53.020;6.598;2023-04-03T07:13:10;8.23;;;3.70;;
52186;SDS011;38161;53.020;6.598;2023-04-03T07:15:36;7.93;;;2.87;;
52186;SDS011;38161;53.020;6.598;2023-04-03T07:18:02;6.13;;;2.45;;
52186;SDS011;38161;53.020;6.598;2023-04-03T07:22:54;7.80;;;2.70;;
52186;SDS011;38161;53.020;6.598;2023-04-03T07:25:20;7.87;;;2.97;;
52186;SDS011;38161;53.020;6.598;2023-04-03T07:27:45;10.03;;;2.97;;
52186;SDS011;38161;53.020;6.598;2023-04-03T07:32:39;8.57;;;3.00;;
52186;SDS011;38161;53.020;6.598;2023-04-03T07:35:05;7.65;;;2.83;;
52186;SDS011;38161;53.020;6.598;2023-04-03T07:37:31;7.07;;;2.78;;
52186;SDS011;38161;53.020;6.598;2023-04-03T07:39:57;8.23;;;2.50;;
52186;SDS011;38161;53.020;6.598;2023-04-03T07:42:24;7.28;;;2.72;;
52186;SDS011;38161;53.020;6.598;2023-04-03T07:44:53;9.67;;;2.43;;
52186;SDS011;38161;53.020;6.598;2023-04-03T07:47:19;5.93;;;2.25;;
52186;SDS011;38161;53.020;6.598;2023-04-03T07:49:46;5.97;;;2.40;;
52186;SDS011;38161;53.020;6.598;2023-04-03T07:52:13;8.10;;;2.30;;
52186;SDS011;38161;53.020;6.598;2023-04-03T07:54:40;6.90;;;2.20;;
52186;SDS011;38161;53.020;6.598;2023-04-03T07:57:06;8.45;;;2.72;;
52186;SDS011;38161;53.020;6.598;2023-04-03T07:59:32;9.13;;;2.85;;
52186;SDS011;38161;53.020;6.598;2023-04-03T08:01:58;7.65;;;3.08;;
52186;SDS011;38161;53.020;6.598;2023-04-03T08:04:24;12.20;;;3.53;;
52186;SDS011;38161;53.020;6.598;2023-04-03T08:06:51;7.38;;;2.33;;
52186;SDS011;38161;53.020;6.598;2023-04-03T08:09:17;8.57;;;2.65;;
52186;SDS011;38161;53.020;6.598;2023-04-03T08:11:44;8.40;;;2.37;;
52186;SDS011;38161;53.020;6.598;2023-04-03T08:14:11;8.60;;;2.40;;
52186;SDS011;38161;53.020;6.598;2023-04-03T08:16:42;6.38;;;2.40;;
52186;SDS011;38161;53.020;6.598;2023-04-03T08:19:08;5.28;;;2.15;;
52186;SDS011;38161;53.020;6.598;2023-04-03T08:21:39;5.32;;;1.95;;
52186;SDS011;38161;53.020;6.598;2023-04-03T08:24:06;5.03;;;1.90;;
52186;SDS011;38161;53.020;6.598;2023-04-03T08:26:34;7.35;;;1.83;;
52186;SDS011;38161;53.020;6.598;2023-04-03T08:29:00;9.00;;;2.65;;
52186;SDS011;38161;53.020;6.598;2023-04-03T08:31:26;8.05;;;2.25;;
52186;SDS011;38161;53.020;6.598;2023-04-03T08:33:52;5.60;;;1.63;;
52186;SDS011;38161;53.020;6.598;2023-04-03T08:36:23;6.47;;;1.90;;
52186;SDS011;38161;53.020;6.598;2023-04-03T08:38:50;8.43;;;2.28;;
52186;SDS011;38161;53.020;6.598;2023-04-03T08:41:20;5.75;;;1.95;;
52186;SDS011;38161;53.020;6.598;2023-04-03T08:49:20;4.25;;;1.48;;
52186;SDS011;38161;53.020;6.598;2023-04-03T08:52:12;4.47;;;1.83;;
52186;SDS011;38161;53.020;6.598;2023-04-03T08:54:48;7.65;;;1.80;;
52186;SDS011;38161;53.020;6.598;2023-04-03T08:57:28;3.42;;;1.60;;
52186;SDS011;38161;53.020;6.598;2023-04-03T08:59:57;4.40;;;1.88;;
52186;SDS011;38161;53.020;6.598;2023-04-03T09:02:27;4.25;;;1.67;;
52186;SDS011;38161;53.020;6.598;2023-04-03T09:04:54;3.05;;;1.35;;
52186;SDS011;38161;53.020;6.598;2023-04-03T09:07:23;3.22;;;1.35;;
52186;SDS011;38161;53.020;6.598;2023-04-03T09:09:57;4.95;;;1.45;;
52186;SDS011;38161;53.020;6.598;2023-04-03T09:12:29;4.13;;;1.63;;
52186;SDS011;38161;53.020;6.598;2023-04-03T09:15:09;5.35;;;1.83;;
52186;SDS011;38161;53.020;6.598;2023-04-03T09:20:53;5.15;;;1.35;;
52186;SDS011;38161;53.020;6.598;2023-04-03T09:28:49;4.22;;;1.33;;
52186;SDS011;38161;53.020;6.598;2023-04-03T09:33:49;4.18;;;1.27;;
52186;SDS011;38161;53.020;6.598;2023-04-03T09:39:12;2.42;;;0.95;;
52186;SDS011;38161;53.020;6.598;2023-04-03T09:41:57;4.75;;;1.27;;
52186;SDS011;38161;53.020;6.598;2023-04-03T09:44:31;2.45;;;1.08;;
52186;SDS011;38161;53.020;6.598;2023-04-03T09:46:59;2.67;;;0.70;;
52186;SDS011;38161;53.020;6.598;2023-04-03T09:49:42;2.38;;;1.10;;
52186;SDS011;38161;53.020;6.598;2023-04-03T09:52:22;3.47;;;1.40;;
52186;SDS011;38161;53.020;6.598;2023-04-03T09:54:50;6.65;;;1.75;;
52186;SDS011;38161;53.020;6.598;2023-04-03T09:57:16;3.40;;;1.13;;
52186;SDS011;38161;53.020;6.598;2023-04-03T09:59:47;2.30;;;0.90;;
52186;SDS011;38161;53.020;6.598;2023-04-03T10:04:57;3.50;;;1.02;;
52186;SDS011;38161;53.020;6.598;2023-04-03T10:10:15;3.10;;;0.88;;
52186;SDS011;38161;53.020;6.598;2023-04-03T10:12:48;3.05;;;1.25;;
52186;SDS011;38161;53.020;6.598;2023-04-03T10:15:15;3.83;;;1.25;;
52186;SDS011;38161;53.020;6.598;2023-04-03T10:17:56;3.30;;;0.95;;
52186;SDS011;38161;53.020;6.598;2023-04-03T10:20:37;2.75;;;1.00;;
52186;SDS011;38161;53.020;6.598;2023-04-03T10:29:02;4.18;;;1.13;;
52186;SDS011;38161;53.020;6.598;2023-04-03T10:34:46;2.25;;;0.90;;
52186;SDS011;38161;53.020;6.598;2023-04-03T10:37:27;1.08;;;0.52;;
52186;SDS011;38161;53.020;6.598;2023-04-03T10:42:43;3.17;;;0.90;;
52186;SDS011;38161;53.020;6.598;2023-04-03T10:47:47;2.50;;;0.85;;
52186;SDS011;38161;53.020;6.598;2023-04-03T10:58:44;2.88;;;0.90;;
52186;SDS011;38161;53.020;6.598;2023-04-03T11:01:18;2.85;;;0.90;;
52186;SDS011;38161;53.020;6.598;2023-04-03T11:04:03;3.35;;;1.15;;
52186;SDS011;38161;53.020;6.598;2023-04-03T11:06:35;3.05;;;0.93;;
52186;SDS011;38161;53.020;6.598;2023-04-03T11:11:44;2.97;;;0.95;;
52186;SDS011;38161;53.020;6.598;2023-04-03T11:22:50;4.63;;;1.33;;
52186;SDS011;38161;53.020;6.598;2023-04-03T11:25:24;4.45;;;1.30;;
52186;SDS011;38161;53.020;6.598;2023-04-03T11:27:58;4.80;;;1.30;;
52186;SDS011;38161;53.020;6.598;2023-04-03T11:30:32;4.32;;;1.15;;
52186;SDS011;38161;53.020;6.598;2023-04-03T11:38:36;2.63;;;1.02;;
52186;SDS011;38161;53.020;6.598;2023-04-03T11:41:06;2.65;;;1.00;;
52186;SDS011;38161;53.020;6.598;2023-04-03T11:43:33;1.92;;;1.13;;
52186;SDS011;38161;53.020;6.598;2023-04-03T11:46:08;4.60;;;1.10;;
52186;SDS011;38161;53.020;6.598;2023-04-03T11:53:38;2.33;;;0.85;;
52186;SDS011;38161;53.020;6.598;2023-04-03T12:01:48;3.88;;;1.48;;
52186;SDS011;38161;53.020;6.598;2023-04-03T12:04:17;3.40;;;1.15;;
52186;SDS011;38161;53.020;6.598;2023-04-03T12:09:27;1.88;;;0.90;;
52186;SDS011;38161;53.020;6.598;2023-04-03T12:11:56;2.95;;;1.20;;
52186;SDS011;38161;53.020;6.598;2023-04-03T12:14:25;2.08;;;1.23;;
52186;SDS011;38161;53.020;6.598;2023-04-03T12:16:54;5.57;;;1.25;;
52186;SDS011;38161;53.020;6.598;2023-04-03T12:24:25;4.28;;;1.55;;
52186;SDS011;38161;53.020;6.598;2023-04-03T12:37:21;3.60;;;1.20;;
52186;SDS011;38161;53.020;6.598;2023-04-03T12:42:52;3.58;;;1.13;;
52186;SDS011;38161;53.020;6.598;2023-04-03T12:45:49;2.78;;;1.30;;
52186;SDS011;38161;53.020;6.598;2023-04-03T12:48:29;3.30;;;1.08;;
52186;SDS011;38161;53.020;6.598;2023-04-03T12:50:57;3.85;;;1.27;;
52186;SDS011;38161;53.020;6.598;2023-04-03T12:53:28;3.17;;;1.38;;
52186;SDS011;38161;53.020;6.598;2023-04-03T12:58:47;3.63;;;1.30;;
52186;SDS011;38161;53.020;6.598;2023-04-03T13:01:17;3.00;;;1.20;;
52186;SDS011;38161;53.020;6.598;2023-04-03T13:03:49;5.43;;;1.58;;
52186;SDS011;38161;53.020;6.598;2023-04-03T13:06:27;4.60;;;1.63;;
52186;SDS011;38161;53.020;6.598;2023-04-03T13:08:57;11.77;;;1.33;;
52186;SDS011;38161;53.020;6.598;2023-04-03T13:11:36;5.45;;;1.30;;
52186;SDS011;38161;53.020;6.598;2023-04-03T13:14:14;2.97;;;1.38;;
52186;SDS011;38161;53.020;6.598;2023-04-03T13:16:42;4.30;;;1.50;;
52186;SDS011;38161;53.020;6.598;2023-04-03T13:19:17;3.67;;;1.33;;
52186;SDS011;38161;53.020;6.598;2023-04-03T13:21:43;3.45;;;1.40;;
52186;SDS011;38161;53.020;6.598;2023-04-03T13:24:10;3.63;;;1.48;;
52186;SDS011;38161;53.020;6.598;2023-04-03T13:26:36;4.75;;;1.63;;
52186;SDS011;38161;53.020;6.598;2023-04-03T13:29:03;4.03;;;1.80;;
52186;SDS011;38161;53.020;6.598;2023-04-03T13:31:33;3.08;;;1.60;;
52186;SDS011;38161;53.020;6.598;2023-04-03T13:34:12;6.40;;;1.52;;
52186;SDS011;38161;53.020;6.598;2023-04-03T13:41:45;4.35;;;1.42;;
52186;SDS011;38161;53.020;6.598;2023-04-03T13:47:36;3.17;;;1.38;;
52186;SDS011;38161;53.020;6.598;2023-04-03T13:49:41;2.88;;;1.05;;
52186;SDS011;38161;53.020;6.598;2023-04-03T13:52:28;4.43;;;1.48;;
52186;SDS011;38161;53.020;6.598;2023-04-03T13:55:02;4.38;;;1.52;;
52186;SDS011;38161;53.020;6.598;2023-04-03T13:57:56;3.72;;;1.60;;
52186;SDS011;38161;53.020;6.598;2023-04-03T14:00:33;4.22;;;1.45;;
52186;SDS011;38161;53.020;6.598;2023-04-03T14:06:05;2.65;;;1.42;;
52186;SDS011;38161;53.020;6.598;2023-04-03T14:08:33;5.03;;;1.40;;
52186;SDS011;38161;53.020;6.598;2023-04-03T14:10:59;3.38;;;1.48;;
52186;SDS011;38161;53.020;6.598;2023-04-03T14:13:25;2.13;;;1.25;;
52186;SDS011;38161;53.020;6.598;2023-04-03T14:15:51;3.35;;;1.25;;
52186;SDS011;38161;53.020;6.598;2023-04-03T14:18:17;4.03;;;1.55;;
52186;SDS011;38161;53.020;6.598;2023-04-03T14:20:44;2.97;;;1.40;;
52186;SDS011;38161;53.020;6.598;2023-04-03T14:23:10;3.13;;;1.30;;
52186;SDS011;38161;53.020;6.598;2023-04-03T14:25:37;3.75;;;1.15;;
52186;SDS011;38161;53.020;6.598;2023-04-03T14:28:14;3.63;;;1.30;;
52186;SDS011;38161;53.020;6.598;2023-04-03T14:30:44;3.05;;;1.27;;
52186;SDS011;38161;53.020;6.598;2023-04-03T14:33:13;3.22;;;1.13;;
52186;SDS011;38161;53.020;6.598;2023-04-03T14:35:41;3.25;;;1.20;;
52186;SDS011;38161;53.020;6.598;2023-04-03T14:38:20;4.57;;;1.60;;
52186;SDS011;38161;53.020;6.598;2023-04-03T14:40:50;2.38;;;1.20;;
52186;SDS011;38161;53.020;6.598;2023-04-03T14:43:16;3.00;;;1.25;;
52186;SDS011;38161;53.020;6.598;2023-04-03T14:45:44;3.40;;;1.10;;
52186;SDS011;38161;53.020;6.598;2023-04-03T14:48:15;2.78;;;1.20;;
52186;SDS011;38161;53.020;6.598;2023-04-03T14:50:44;3.33;;;1.30;;
52186;SDS011;38161;53.020;6.598;2023-04-03T14:53:10;3.60;;;1.20;;
52186;SDS011;38161;53.020;6.598;2023-04-03T14:55:39;4.45;;;1.15;;
52186;SDS011;38161;53.020;6.598;2023-04-03T14:58:14;3.03;;;1.48;;
52186;SDS011;38161;53.020;6.598;2023-04-03T15:00:41;4.82;;;1.33;;
52186;SDS011;38161;53.020;6.598;2023-04-03T15:03:15;3.53;;;1.35;;
52186;SDS011;38161;53.020;6.598;2023-04-03T15:05:46;2.28;;;0.95;;
52186;SDS011;38161;53.020;6.598;2023-04-03T15:08:18;3.22;;;1.20;;
52186;SDS011;38161;53.020;6.598;2023-04-03T15:10:49;2.78;;;1.35;;
52186;SDS011;38161;53.020;6.598;2023-04-03T15:13:17;2.70;;;1.02;;
52186;SDS011;38161;53.020;6.598;2023-04-03T15:15:44;3.50;;;1.25;;
52186;SDS011;38161;53.020;6.598;2023-04-03T15:18:18;4.28;;;1.10;;
52186;SDS011;38161;53.020;6.598;2023-04-03T15:20:47;2.50;;;0.90;;
52186;SDS011;38161;53.020;6.598;2023-04-03T15:23:14;2.08;;;1.00;;
52186;SDS011;38161;53.020;6.598;2023-04-03T15:25:44;3.70;;;1.08;;
52186;SDS011;38161;53.020;6.598;2023-04-03T15:28:21;2.15;;;0.90;;
52186;SDS011;38161;53.020;6.598;2023-04-03T15:30:50;2.22;;;0.80;;
52186;SDS011;38161;53.020;6.598;2023-04-03T15:33:16;3.90;;;1.00;;
52186;SDS011;38161;53.020;6.598;2023-04-03T15:35:42;4.10;;;1.13;;
52186;SDS011;38161;53.020;6.598;2023-04-03T15:38:11;3.40;;;1.20;;
52186;SDS011;38161;53.020;6.598;2023-04-03T15:40:37;1.45;;;0.90;;
52186;SDS011;38161;53.020;6.598;2023-04-03T15:43:04;2.38;;;1.33;;
52186;SDS011;38161;53.020;6.598;2023-04-03T15:45:31;2.65;;;0.95;;
52186;SDS011;38161;53.020;6.598;2023-04-03T15:47:58;3.65;;;1.05;;
52186;SDS011;38161;53.020;6.598;2023-04-03T15:50:24;3.22;;;1.20;;
52186;SDS011;38161;53.020;6.598;2023-04-03T15:52:51;2.97;;;1.30;;
52186;SDS011;38161;53.020;6.598;2023-04-03T15:55:22;3.22;;;1.17;;
52186;SDS011;38161;53.020;6.598;2023-04-03T15:57:50;4.35;;;1.58;;
52186;SDS011;38161;53.020;6.598;2023-04-03T16:00:17;3.30;;;1.25;;
52186;SDS011;38161;53.020;6.598;2023-04-03T16:02:43;5.18;;;1.40;;
52186;SDS011;38161;53.020;6.598;2023-04-03T16:05:12;3.47;;;1.25;;
52186;SDS011;38161;53.020;6.598;2023-04-03T16:07:40;4.10;;;1.40;;
52186;SDS011;38161;53.020;6.598;2023-04-03T16:10:07;2.67;;;1.25;;
52186;SDS011;38161;53.020;6.598;2023-04-03T16:12:34;4.88;;;1.30;;
52186;SDS011;38161;53.020;6.598;2023-04-03T16:15:00;2.83;;;1.35;;
52186;SDS011;38161;53.020;6.598;2023-04-03T16:17:26;2.47;;;1.23;;
52186;SDS011;38161;53.020;6.598;2023-04-03T16:19:53;5.05;;;1.70;;
52186;SDS011;38161;53.020;6.598;2023-04-03T16:22:20;5.18;;;1.45;;
52186;SDS011;38161;53.020;6.598;2023-04-03T16:24:48;4.05;;;1.60;;
52186;SDS011;38161;53.020;6.598;2023-04-03T16:27:15;5.90;;;1.17;;
52186;SDS011;38161;53.020;6.598;2023-04-03T16:29:41;3.13;;;1.13;;
52186;SDS011;38161;53.020;6.598;2023-04-03T16:32:06;3.00;;;1.20;;
52186;SDS011;38161;53.020;6.598;2023-04-03T16:34:32;4.13;;;1.08;;
52186;SDS011;38161;53.020;6.598;2023-04-03T16:36:58;2.63;;;1.05;;
52186;SDS011;38161;53.020;6.598;2023-04-03T16:39:24;2.33;;;1.00;;
52186;SDS011;38161;53.020;6.598;2023-04-03T16:41:50;2.95;;;1.15;;
52186;SDS011;38161;53.020;6.598;2023-04-03T16:44:16;2.20;;;0.80;;
52186;SDS011;38161;53.020;6.598;2023-04-03T16:46:42;1.75;;;0.80;;
52186;SDS011;38161;53.020;6.598;2023-04-03T16:49:08;2.28;;;0.80;;
52186;SDS011;38161;53.020;6.598;2023-04-03T16:51:33;4.63;;;1.00;;
52186;SDS011;38161;53.020;6.598;2023-04-03T16:53:59;3.45;;;1.27;;
52186;SDS011;38161;53.020;6.598;2023-04-03T16:56:25;3.28;;;1.10;;
52186;SDS011;38161;53.020;6.598;2023-04-03T16:58:52;2.13;;;1.02;;
52186;SDS011;38161;53.020;6.598;2023-04-03T17:01:19;1.85;;;1.00;;